Terminal Aerodrome Forecast
Issued by NWS

Home | Current Version | Previous Version | Text Only | Print | Product List | Glossary On
Versions: 1 2 3 4 5 6 7 8 9 10 11 12 13 14 15 16 17 18 19 20 21 22 23 24 25 26 27 28 29 30
000
FTUS41 KRNK 221723
TAFBCB
TAF
KBCB 221723Z 2218/2318 VRB03KT P6SM BKN080
     FM222300 17008G18KT P6SM VCSH OVC050
     FM230300 17010G19KT 5SM -SHRA BR OVC030 WS020/19035KT
     FM230500 19011G22KT 2SM -SHRA BR OVC015 WS020/19035KT
      TEMPO 2306/2308 VRB15G25KT 1SM +SHRA BR OVC005
     FM231000 24010G22KT 3/4SM -SHRA BR OVC003
     FM231300 27013G24KT P6SM BKN015=

USA.gov is the U.S. government's official web portal to all federal, state and local government web resources and services.